Time;durP1;ratioP1;P1;durP2;ratioP2;P2;SDS_P1;SDS_P2;PMS_P1;PMS_P2;Temp;Humidity;BMP_temperature;BMP_pressure;BME280_temperature;BME280_humidity;BME280_pressure;Samples;Min_cycle;Max_cycle;Signal;HPM_P1;HPM_P2
2023/01/21 00:02:11;;;;;;;32.80;19.38;;;3.00;90.10;;;;;;5056547;28;21168;-51
2023/01/21 00:04:37;;;;;;;36.50;20.52;;;3.00;90.10;;;;;;5050547;28;20063;-51
2023/01/21 00:07:06;;;;;;;33.03;19.15;;;3.00;90.10;;;;;;5044790;28;20057;-49
2023/01/21 00:09:32;;;;;;;32.55;19.70;;;3.00;90.10;;;;;;5053204;28;20029;-50
2023/01/21 00:12:01;;;;;;;34.97;20.63;;;3.00;90.20;;;;;;5049793;28;20048;-53
2023/01/21 00:14:28;;;;;;;33.58;19.25;;;2.90;90.20;;;;;;5045720;28;20040;-52
2023/01/21 00:16:54;;;;;;;33.22;19.67;;;2.90;90.20;;;;;;5056896;28;20174;-48
2023/01/21 00:19:20;;;;;;;29.92;18.42;;;2.90;90.20;;;;;;5055105;28;20112;-53
2023/01/21 00:21:45;;;;;;;31.23;18.35;;;2.90;90.20;;;;;;5052774;28;20314;-60
2023/01/21 00:24:11;;;;;;;32.40;19.08;;;2.90;90.30;;;;;;5058372;28;20461;-60
2023/01/21 00:26:36;;;;;;;30.15;18.50;;;2.90;90.30;;;;;;5053024;28;20119;-58
2023/01/21 00:29:03;;;;;;;31.80;18.30;;;2.90;90.30;;;;;;5050255;28;20056;-57
2023/01/21 00:31:28;;;;;;;26.40;16.77;;;2.90;90.40;;;;;;5050667;28;20082;-58
2023/01/21 00:33:54;;;;;;;27.70;15.52;;;2.90;90.40;;;;;;5057924;28;20456;-59
2023/01/21 00:36:21;;;;;;;27.13;16.42;;;2.90;90.50;;;;;;5054803;28;20836;-59
2023/01/21 00:38:50;;;;;;;31.58;17.20;;;2.90;90.40;;;;;;5064683;28;20035;-59
2023/01/21 00:41:16;;;;;;;27.70;16.55;;;2.90;90.40;;;;;;5055754;28;20030;-60
2023/01/21 00:43:42;;;;;;;25.10;15.45;;;2.90;90.40;;;;;;5052960;28;20443;-57
2023/01/21 00:46:08;;;;;;;25.83;15.27;;;2.90;90.40;;;;;;5059773;28;20025;-58
2023/01/21 00:48:34;;;;;;;25.52;16.10;;;2.90;90.40;;;;;;5059727;28;20039;-58
2023/01/21 00:50:59;;;;;;;27.63;17.33;;;2.90;90.40;;;;;;5070536;28;20390;-54
2023/01/21 00:53:26;;;;;;;23.20;14.57;;;3.00;90.40;;;;;;5052634;28;20817;-54
2023/01/21 00:55:52;;;;;;;23.95;15.90;;;3.00;90.30;;;;;;5046538;28;20510;-52
2023/01/21 00:58:18;;;;;;;26.52;15.52;;;3.00;90.30;;;;;;5051686;28;20021;-51
2023/01/21 01:00:43;;;;;;;26.67;15.98;;;3.00;90.30;;;;;;5059602;28;20440;-60
2023/01/21 01:03:09;;;;;;;27.15;16.95;;;3.00;90.20;;;;;;5042020;28;20112;-59
2023/01/21 01:05:36;;;;;;;24.85;15.55;;;3.00;90.10;;;;;;5051710;28;20052;-60
2023/01/21 01:08:01;;;;;;;28.95;16.15;;;3.00;90.10;;;;;;5050142;28;20079;-60
2023/01/21 01:10:27;;;;;;;25.15;15.95;;;3.00;90.10;;;;;;5056176;28;20075;-60
2023/01/21 01:12:53;;;;;;;25.77;15.85;;;3.00;90.20;;;;;;5050999;28;20573;-60
2023/01/21 01:15:18;;;;;;;28.90;16.60;;;3.00;90.20;;;;;;5055886;28;20486;-60
2023/01/21 01:17:44;;;;;;;28.92;16.30;;;3.00;90.20;;;;;;5049674;28;20029;-60
2023/01/21 01:20:10;;;;;;;27.83;16.58;;;3.00;90.20;;;;;;5055040;28;20033;-60
2023/01/21 01:22:36;;;;;;;23.88;14.60;;;3.00;90.30;;;;;;5056944;28;20041;-60
2023/01/21 01:25:01;;;;;;;24.40;14.93;;;3.00;90.40;;;;;;5051002;28;20040;-61
2023/01/21 01:27:29;;;;;;;25.40;16.08;;;3.00;90.30;;;;;;5054539;28;20361;-61
2023/01/21 01:29:55;;;;;;;23.13;14.52;;;3.10;90.20;;;;;;5057131;28;20033;-59
2023/01/21 01:32:20;;;;;;;24.85;14.13;;;3.10;90.10;;;;;;5055221;28;20119;-60
2023/01/21 01:34:46;;;;;;;24.17;14.43;;;3.10;90.00;;;;;;5051348;28;20032;-60
2023/01/21 01:37:12;;;;;;;27.20;14.98;;;3.00;90.00;;;;;;5051456;28;20060;-60
2023/01/21 01:39:37;;;;;;;21.88;14.65;;;3.00;90.00;;;;;;5047853;28;20035;-60
2023/01/21 01:42:03;;;;;;;26.20;15.55;;;3.00;89.90;;;;;;5049759;28;20024;-61
2023/01/21 01:45:02;;;;;;;22.02;14.25;;;3.00;89.80;;;;;;5052801;28;20491;-60
2023/01/21 01:47:34;;;;;;;21.90;13.60;;;3.00;89.70;;;;;;5056332;28;20036;-60
2023/01/21 01:50:01;;;;;;;25.50;15.13;;;3.00;89.90;;;;;;5050430;28;20033;-60
2023/01/21 01:52:28;;;;;;;23.05;15.02;;;2.90;89.80;;;;;;5046068;28;20143;-59
2023/01/21 01:54:57;;;;;;;24.95;15.20;;;2.90;89.80;;;;;;5051281;28;20032;-61
2023/01/21 01:57:27;;;;;;;25.25;15.43;;;2.90;89.80;;;;;;5049188;28;20049;-60
2023/01/21 01:59:53;;;;;;;25.83;14.93;;;2.90;89.80;;;;;;5054611;28;20113;-60
2023/01/21 02:02:19;;;;;;;24.02;15.68;;;2.90;89.80;;;;;;5054662;28;20059;-60
2023/01/21 02:04:49;;;;;;;24.55;14.40;;;2.90;89.80;;;;;;5047967;28;20032;-59
2023/01/21 02:07:17;;;;;;;21.60;14.32;;;2.80;89.70;;;;;;5047422;28;20031;-61
2023/01/21 02:09:43;;;;;;;23.13;14.73;;;2.90;89.80;;;;;;5053611;28;20036;-60
2023/01/21 02:12:09;;;;;;;23.85;14.85;;;2.80;89.70;;;;;;5046027;28;20029;-61
2023/01/21 02:14:41;;;;;;;24.92;14.65;;;2.80;89.80;;;;;;5051248;28;20043;-58
2023/01/21 02:17:39;;;;;;;25.13;14.40;;;2.80;89.70;;;;;;5052582;28;20103;-60
2023/01/21 02:20:38;;;;;;;23.35;14.43;;;2.80;89.50;;;;;;5050924;28;20045;-60
2023/01/21 02:23:19;;;;;;;24.13;14.18;;;2.80;89.50;;;;;;5051320;28;20572;-61
2023/01/21 02:25:56;;;;;;;25.52;15.10;;;2.80;89.70;;;;;;5040491;28;20040;-60
2023/01/21 02:28:28;;;;;;;24.27;14.98;;;2.80;89.70;;;;;;5054157;28;20404;-61
2023/01/21 02:31:22;;;;;;;20.60;14.18;;;2.80;89.80;;;;;;5049116;28;20144;-59
2023/01/21 02:34:12;;;;;;;24.77;14.55;;;2.70;89.70;;;;;;5054575;28;20134;-61
2023/01/21 02:36:56;;;;;;;21.10;13.23;;;2.70;89.90;;;;;;5051361;28;20535;-59
2023/01/21 02:40:12;;;;;;;22.13;14.48;;;2.70;90.00;;;;;;5053865;28;20471;-60
2023/01/21 02:42:49;;;;;;;23.70;13.63;;;2.70;89.90;;;;;;5016257;28;20043;-61
2023/01/21 02:45:21;;;;;;;25.88;14.02;;;2.80;90.00;;;;;;5062954;28;20117;-60
2023/01/21 02:48:05;;;;;;;21.73;13.48;;;2.80;90.10;;;;;;5052493;28;21001;-61
2023/01/21 02:50:37;;;;;;;27.30;14.48;;;2.80;90.00;;;;;;5053162;28;20333;-60
2023/01/21 02:53:04;;;;;;;20.02;13.00;;;2.70;90.00;;;;;;5050831;28;20037;-61
2023/01/21 02:55:34;;;;;;;20.77;13.30;;;2.70;90.10;;;;;;5051508;28;20028;-60
2023/01/21 02:58:13;;;;;;;23.25;13.02;;;2.70;90.20;;;;;;5049061;28;20064;-60
2023/01/21 03:01:06;;;;;;;20.83;12.75;;;2.70;90.10;;;;;;5052181;28;20060;-60
2023/01/21 03:03:59;;;;;;;21.50;13.10;;;2.80;90.20;;;;;;5054735;28;20440;-60
2023/01/21 03:06:48;;;;;;;21.50;13.40;;;2.80;90.10;;;;;;5047801;28;20040;-57
2023/01/21 03:09:20;;;;;;;22.10;13.00;;;2.80;90.10;;;;;;5049619;28;20459;-60
2023/01/21 03:12:04;;;;;;;20.63;12.38;;;2.80;90.10;;;;;;5048017;28;20072;-61
2023/01/21 03:17:56;;;;;;;22.80;13.00;;;2.90;90.00;;;;;;5033873;28;20107;-60
2023/01/21 03:20:32;;;;;;;21.15;13.18;;;2.90;90.00;;;;;;5042330;28;20083;-60
2023/01/21 03:23:10;;;;;;;21.73;12.88;;;2.90;90.00;;;;;;5053024;28;20129;-61
2023/01/21 03:25:36;;;;;;;20.10;12.43;;;2.90;90.00;;;;;;5043140;28;20028;-59
2023/01/21 03:28:06;;;;;;;19.90;12.40;;;2.90;89.90;;;;;;5054211;28;20040;-61
2023/01/21 03:30:35;;;;;;;21.13;14.55;;;2.90;90.00;;;;;;5048691;28;20079;-61
2023/01/21 03:33:02;;;;;;;23.17;13.77;;;2.90;89.80;;;;;;5051097;28;20414;-61
2023/01/21 03:35:36;;;;;;;23.27;13.13;;;2.90;89.70;;;;;;5047705;28;20029;-60
2023/01/21 03:38:29;;;;;;;20.40;12.68;;;2.90;89.70;;;;;;5057368;28;20037;-61
2023/01/21 03:41:04;;;;;;;21.35;11.45;;;2.90;89.60;;;;;;5052606;28;20140;-57
2023/01/21 03:43:30;;;;;;;19.92;12.30;;;2.90;89.60;;;;;;5048823;28;20313;-60
2023/01/21 03:46:09;;;;;;;21.98;12.38;;;2.90;89.60;;;;;;5049349;28;20515;-61
2023/01/21 03:48:44;;;;;;;21.92;11.93;;;2.90;89.40;;;;;;5048212;28;20387;-61
2023/01/21 03:51:15;;;;;;;19.80;11.63;;;2.80;89.40;;;;;;5049867;28;20573;-60
2023/01/21 03:53:42;;;;;;;20.25;11.65;;;2.80;89.80;;;;;;5044814;28;20033;-60
2023/01/21 03:56:07;;;;;;;17.77;11.70;;;2.80;90.00;;;;;;5049277;28;20052;-61
2023/01/21 03:58:33;;;;;;;22.35;12.43;;;2.80;90.10;;;;;;5051487;28;20120;-61
2023/01/21 04:00:59;;;;;;;17.92;11.70;;;2.80;90.10;;;;;;5057751;28;20390;-60
2023/01/21 04:03:24;;;;;;;18.27;11.40;;;2.90;90.10;;;;;;5046988;28;20144;-59
2023/01/21 04:05:50;;;;;;;17.90;11.02;;;2.80;90.10;;;;;;5050001;28;20064;-60
2023/01/21 04:08:15;;;;;;;18.13;11.10;;;2.90;90.00;;;;;;5054595;28;20033;-60
2023/01/21 04:10:41;;;;;;;18.90;11.73;;;2.90;90.00;;;;;;5052354;28;20526;-59
2023/01/21 04:13:07;;;;;;;16.05;11.25;;;2.90;89.90;;;;;;5052707;28;20041;-61
2023/01/21 04:15:32;;;;;;;17.75;12.32;;;2.90;89.80;;;;;;5056875;28;20025;-60
2023/01/21 04:17:58;;;;;;;20.83;12.43;;;2.90;89.80;;;;;;5050925;28;20448;-61
2023/01/21 04:20:24;;;;;;;20.60;11.52;;;2.90;89.60;;;;;;5056724;28;20227;-60
2023/01/21 04:22:49;;;;;;;18.77;11.73;;;2.80;89.40;;;;;;5048012;28;20048;-61
2023/01/21 04:25:15;;;;;;;21.17;12.25;;;2.90;89.30;;;;;;5059382;28;20040;-60
2023/01/21 04:27:40;;;;;;;15.50;10.90;;;2.80;89.20;;;;;;5053214;28;20032;-61
2023/01/21 04:30:07;;;;;;;17.75;10.48;;;2.80;89.10;;;;;;5051891;28;20024;-61
2023/01/21 04:32:32;;;;;;;20.50;11.98;;;2.80;89.40;;;;;;5054414;28;20036;-60
2023/01/21 04:34:58;;;;;;;17.67;10.23;;;2.80;89.30;;;;;;5050632;28;20017;-61
2023/01/21 04:37:24;;;;;;;15.77;10.35;;;2.80;89.30;;;;;;5054468;28;20032;-60
2023/01/21 04:39:49;;;;;;;18.75;11.23;;;2.70;90.00;;;;;;5062313;28;20283;-60
2023/01/21 04:42:15;;;;;;;18.80;10.15;;;2.70;89.30;;;;;;5052279;28;20387;-61
2023/01/21 04:44:40;;;;;;;16.55;10.13;;;2.70;89.30;;;;;;5062041;28;20041;-61
2023/01/21 04:47:06;;;;;;;16.77;10.43;;;2.70;89.40;;;;;;5046379;28;20485;-61
2023/01/21 04:49:32;;;;;;;15.63;9.55;;;2.70;89.50;;;;;;5050679;28;20037;-59
2023/01/21 04:51:57;;;;;;;15.20;10.07;;;2.70;89.50;;;;;;5051539;28;20033;-61
2023/01/21 04:54:23;;;;;;;16.98;9.75;;;2.70;89.70;;;;;;5054646;28;20029;-59
2023/01/21 04:56:49;;;;;;;16.85;9.80;;;2.70;89.50;;;;;;5056182;28;20440;-61
2023/01/21 04:59:14;;;;;;;17.40;9.85;;;2.60;89.30;;;;;;5053828;28;20140;-60
2023/01/21 05:01:40;;;;;;;16.98;9.63;;;2.60;89.50;;;;;;5052284;28;20523;-60
2023/01/21 05:04:05;;;;;;;17.83;10.15;;;2.60;89.50;;;;;;5056560;28;20452;-60
2023/01/21 05:06:31;;;;;;;15.82;9.75;;;2.60;89.60;;;;;;5056550;28;20387;-59
2023/01/21 05:08:57;;;;;;;15.25;9.38;;;2.60;89.70;;;;;;5051251;28;20037;-60
2023/01/21 05:11:22;;;;;;;16.52;9.35;;;2.70;89.70;;;;;;5052229;28;20084;-60
2023/01/21 05:13:48;;;;;;;13.18;9.18;;;2.60;89.70;;;;;;5048910;28;20126;-60
2023/01/21 05:16:14;;;;;;;15.10;9.35;;;2.70;89.70;;;;;;5057026;28;20036;-60
2023/01/21 05:18:40;;;;;;;14.35;9.13;;;2.60;89.60;;;;;;5059436;28;20021;-60
2023/01/21 05:21:06;;;;;;;13.75;8.82;;;2.60;89.70;;;;;;5057943;28;20059;-61
2023/01/21 05:23:32;;;;;;;15.10;9.48;;;2.70;89.90;;;;;;5052948;28;20029;-60
2023/01/21 05:25:58;;;;;;;12.45;9.00;;;2.60;89.80;;;;;;5045569;28;20086;-60
2023/01/21 05:28:23;;;;;;;16.05;10.07;;;2.60;89.60;;;;;;5055281;28;20166;-61
2023/01/21 05:30:49;;;;;;;19.15;10.70;;;2.60;89.70;;;;;;5049144;28;20132;-61
2023/01/21 05:33:15;;;;;;;15.00;9.23;;;2.60;89.80;;;;;;5056795;28;20056;-59
2023/01/21 05:35:40;;;;;;;15.15;9.27;;;2.60;90.00;;;;;;5051529;28;20025;-61
2023/01/21 05:38:06;;;;;;;19.58;10.15;;;2.60;90.10;;;;;;5053303;28;20455;-61
2023/01/21 05:40:32;;;;;;;18.85;10.63;;;2.60;90.10;;;;;;5056479;28;20028;-61
2023/01/21 05:42:57;;;;;;;17.02;10.18;;;2.60;90.10;;;;;;5046124;28;20032;-60
2023/01/21 05:45:23;;;;;;;16.90;9.55;;;2.60;89.90;;;;;;5051222;28;20052;-60
2023/01/21 05:47:49;;;;;;;15.15;9.00;;;2.70;90.00;;;;;;5062770;28;20478;-61
2023/01/21 05:50:14;;;;;;;14.95;9.30;;;2.70;89.90;;;;;;5046296;28;20486;-61
2023/01/21 05:52:40;;;;;;;13.48;9.05;;;2.70;89.90;;;;;;5047625;28;20048;-60
2023/01/21 05:55:06;;;;;;;15.50;9.93;;;2.70;90.00;;;;;;5050355;28;20039;-61
2023/01/21 05:57:32;;;;;;;19.45;10.18;;;2.70;89.90;;;;;;5050248;28;20025;-61
2023/01/21 05:59:57;;;;;;;16.67;9.30;;;2.70;89.90;;;;;;5046169;28;20029;-60
2023/01/21 06:02:23;;;;;;;14.35;9.23;;;2.70;89.80;;;;;;5048417;28;20381;-59
2023/01/21 06:04:49;;;;;;;15.70;9.50;;;2.70;90.00;;;;;;5065403;28;20036;-60
2023/01/21 06:07:15;;;;;;;16.73;9.45;;;2.70;89.90;;;;;;5056506;28;20037;-59
2023/01/21 06:09:40;;;;;;;13.45;9.20;;;2.70;89.70;;;;;;5054571;28;20028;-59
2023/01/21 06:12:06;;;;;;;13.35;8.15;;;2.70;89.70;;;;;;5062805;28;20040;-59
2023/01/21 06:14:31;;;;;;;11.88;7.70;;;2.70;89.70;;;;;;5053510;28;20037;-60
2023/01/21 06:16:57;;;;;;;13.63;8.45;;;2.80;89.70;;;;;;5048918;28;20037;-57
2023/01/21 06:19:23;;;;;;;13.95;8.93;;;2.70;89.50;;;;;;5059418;28;20036;-60
2023/01/21 06:21:50;;;;;;;17.10;9.00;;;2.70;89.30;;;;;;5048508;28;20036;-60
2023/01/21 06:24:16;;;;;;;13.07;8.68;;;2.70;89.40;;;;;;5057716;28;20033;-60
2023/01/21 06:26:41;;;;;;;15.65;9.25;;;2.70;89.40;;;;;;5062411;28;20107;-50
2023/01/21 06:29:07;;;;;;;17.20;8.68;;;2.70;89.10;;;;;;5062338;28;20029;-55
2023/01/21 06:31:33;;;;;;;13.93;9.07;;;2.70;89.00;;;;;;5050087;28;20076;-58
2023/01/21 06:33:58;;;;;;;15.10;9.00;;;2.70;89.00;;;;;;5050301;28;20044;-58
2023/01/21 06:36:24;;;;;;;16.60;9.23;;;2.70;89.10;;;;;;5058856;28;20043;-57
2023/01/21 06:38:49;;;;;;;14.77;9.43;;;2.60;89.20;;;;;;5067144;28;20033;-59
2023/01/21 06:41:15;;;;;;;13.55;8.80;;;2.60;89.10;;;;;;5048624;28;20391;-58
2023/01/21 06:43:41;;;;;;;13.18;8.57;;;2.60;89.20;;;;;;5050080;28;20495;-60
2023/01/21 06:46:06;;;;;;;15.48;9.32;;;2.60;89.40;;;;;;5050437;28;20057;-59
2023/01/21 06:48:32;;;;;;;12.73;8.55;;;2.60;89.50;;;;;;5058458;28;20037;-59
2023/01/21 06:51:01;;;;;;;14.18;8.98;;;2.60;89.50;;;;;;5047654;28;20126;-59
2023/01/21 06:53:27;;;;;;;15.52;9.40;;;2.60;89.50;;;;;;5042360;28;20029;-59
2023/01/21 06:55:53;;;;;;;14.77;9.07;;;2.60;89.60;;;;;;5051170;28;20039;-59
2023/01/21 06:58:18;;;;;;;13.15;9.20;;;2.50;89.60;;;;;;5043842;28;20029;-60
2023/01/21 07:00:44;;;;;;;14.10;9.00;;;2.60;89.70;;;;;;5041155;28;20510;-51
2023/01/21 07:03:10;;;;;;;14.80;8.52;;;2.60;89.60;;;;;;5048500;28;20032;-54
2023/01/21 07:05:35;;;;;;;13.63;8.63;;;2.50;89.80;;;;;;5039144;28;20109;-53
2023/01/21 07:08:01;;;;;;;13.25;9.00;;;2.60;89.80;;;;;;5041855;28;20066;-51
2023/01/21 07:10:27;;;;;;;16.63;8.80;;;2.60;89.70;;;;;;5058653;28;20032;-53
2023/01/21 07:12:53;;;;;;;13.10;8.32;;;2.60;89.60;;;;;;5059395;28;20086;-53
2023/01/21 07:15:19;;;;;;;14.68;8.88;;;2.60;89.70;;;;;;5047546;28;20044;-51
2023/01/21 07:17:44;;;;;;;14.18;7.82;;;2.60;89.80;;;;;;5042875;28;20443;-51
2023/01/21 07:20:13;;;;;;;12.15;8.27;;;2.50;89.80;;;;;;5040438;28;20410;-55
2023/01/21 07:22:39;;;;;;;11.45;8.35;;;2.60;90.00;;;;;;5041893;28;20083;-55
2023/01/21 07:25:05;;;;;;;13.07;8.60;;;2.60;89.90;;;;;;5042302;28;20060;-56
2023/01/21 07:27:31;;;;;;;14.65;8.52;;;2.60;90.00;;;;;;5043341;28;20033;-53
2023/01/21 07:29:57;;;;;;;14.55;8.73;;;2.60;90.00;;;;;;5057755;28;20362;-51
2023/01/21 07:32:22;;;;;;;13.07;7.55;;;2.60;90.00;;;;;;5055508;28;20531;-54
2023/01/21 07:34:48;;;;;;;12.63;8.90;;;2.60;90.00;;;;;;5044849;28;20059;-55
2023/01/21 07:37:14;;;;;;;13.13;8.00;;;2.70;90.00;;;;;;5044258;28;20037;-55
2023/01/21 07:39:39;;;;;;;13.18;7.65;;;2.70;89.90;;;;;;5051881;28;20030;-54
2023/01/21 07:42:05;;;;;;;12.38;8.05;;;2.70;89.80;;;;;;5046256;28;20148;-55
2023/01/21 07:44:31;;;;;;;11.20;7.65;;;2.70;90.00;;;;;;5034934;28;21712;-55
2023/01/21 07:46:56;;;;;;;12.60;7.15;;;2.70;90.00;;;;;;5043095;28;20033;-51
2023/01/21 07:49:22;;;;;;;14.00;7.28;;;2.80;89.90;;;;;;5044872;28;20031;-53
2023/01/21 07:51:48;;;;;;;12.25;8.10;;;2.80;89.80;;;;;;5040689;28;20044;-55
2023/01/21 07:54:14;;;;;;;12.63;9.07;;;2.90;89.80;;;;;;5048623;28;20067;-53
2023/01/21 07:56:40;;;;;;;17.65;8.57;;;2.90;89.70;;;;;;5052745;28;20033;-53
2023/01/21 07:59:06;;;;;;;13.52;8.10;;;2.90;89.50;;;;;;5046165;28;20060;-52
2023/01/21 08:01:32;;;;;;;11.77;7.20;;;3.00;89.60;;;;;;5066479;28;20059;-55
2023/01/21 08:03:58;;;;;;;13.38;8.48;;;3.00;89.70;;;;;;5043715;28;20057;-55
2023/01/21 08:06:24;;;;;;;18.48;8.55;;;3.10;90.00;;;;;;5035935;28;20037;-51
2023/01/21 08:08:50;;;;;;;15.57;9.55;;;3.10;89.90;;;;;;5058201;28;20452;-52
2023/01/21 08:11:16;;;;;;;13.13;8.93;;;3.20;90.30;;;;;;5055512;28;20037;-53
2023/01/21 08:13:41;;;;;;;12.27;8.90;;;3.30;90.00;;;;;;5049052;28;20033;-52
2023/01/21 08:16:10;;;;;;;17.48;9.20;;;3.40;89.80;;;;;;5048371;28;20460;-53
2023/01/21 08:18:36;;;;;;;13.20;8.80;;;3.50;89.50;;;;;;5047069;28;20025;-53
2023/01/21 08:21:02;;;;;;;13.55;8.93;;;3.60;89.30;;;;;;5047423;28;20044;-53
2023/01/21 08:23:27;;;;;;;17.83;10.68;;;3.60;89.20;;;;;;5056993;28;20030;-51
2023/01/21 08:25:53;;;;;;;13.70;9.35;;;3.70;88.80;;;;;;5039346;28;20059;-51
2023/01/21 08:28:20;;;;;;;17.23;10.35;;;3.80;88.30;;;;;;5043945;28;20036;-53
2023/01/21 08:30:45;;;;;;;20.95;11.57;;;3.90;88.10;;;;;;5046339;28;20033;-58
2023/01/21 08:33:11;;;;;;;14.30;9.50;;;3.90;87.50;;;;;;5043545;28;20143;-60
2023/01/21 08:35:37;;;;;;;11.88;8.43;;;4.00;87.20;;;;;;5044604;28;20029;-60
2023/01/21 08:38:03;;;;;;;18.90;11.30;;;4.10;87.20;;;;;;5039021;28;20112;-61
2023/01/21 08:40:28;;;;;;;13.45;8.65;;;4.10;87.00;;;;;;5050329;28;20025;-59
2023/01/21 08:42:58;;;;;;;12.68;9.52;;;4.10;86.40;;;;;;5050738;28;20900;-60
2023/01/21 08:45:25;;;;;;;18.08;10.98;;;4.20;86.30;;;;;;5046142;28;20107;-59
2023/01/21 08:47:51;;;;;;;15.98;9.32;;;4.20;86.10;;;;;;5044928;28;20513;-60
2023/01/21 08:50:16;;;;;;;15.30;10.25;;;4.20;85.80;;;;;;5039943;28;20056;-60
2023/01/21 08:52:48;;;;;;;14.93;9.20;;;4.20;85.50;;;;;;5047653;28;20037;-60
2023/01/21 08:55:14;;;;;;;12.20;7.97;;;4.20;85.50;;;;;;5053060;28;20609;-53
2023/01/21 08:57:40;;;;;;;14.18;9.13;;;4.20;85.60;;;;;;5038061;28;20112;-53
2023/01/21 09:00:06;;;;;;;12.88;7.78;;;4.30;86.00;;;;;;5036503;28;20028;-52
2023/01/21 09:02:32;;;;;;;12.73;8.10;;;4.30;85.90;;;;;;5040076;28;20044;-51
2023/01/21 09:04:57;;;;;;;16.88;9.52;;;4.40;85.80;;;;;;5054552;28;20028;-52
2023/01/21 09:07:23;;;;;;;14.38;9.77;;;4.40;85.40;;;;;;5046246;28;20074;-52
2023/01/21 09:09:48;;;;;;;15.88;9.10;;;4.40;85.20;;;;;;5038514;28;20029;-52
2023/01/21 09:12:14;;;;;;;17.33;10.02;;;4.40;84.80;;;;;;5040249;28;20052;-57
2023/01/21 09:14:40;;;;;;;18.00;10.00;;;4.40;84.70;;;;;;5058448;28;20051;-52
2023/01/21 09:17:05;;;;;;;15.88;9.43;;;4.40;84.50;;;;;;5044965;28;20382;-51
2023/01/21 09:19:31;;;;;;;15.52;10.02;;;4.40;84.30;;;;;;5044145;28;20060;-53
2023/01/21 09:21:56;;;;;;;15.00;9.40;;;4.30;84.20;;;;;;5041434;28;20028;-50
2023/01/21 09:24:23;;;;;;;15.43;10.07;;;4.30;84.20;;;;;;5046518;28;20029;-52
2023/01/21 09:26:49;;;;;;;14.82;8.50;;;4.30;84.50;;;;;;5054004;28;20025;-61
2023/01/21 09:29:15;;;;;;;12.57;8.40;;;4.30;84.60;;;;;;5049557;28;20179;-61
2023/01/21 09:31:40;;;;;;;13.98;8.07;;;4.30;84.60;;;;;;5035891;28;20131;-55
2023/01/21 09:34:08;;;;;;;15.65;9.55;;;4.30;84.70;;;;;;5051065;28;20039;-56
2023/01/21 09:36:34;;;;;;;16.90;9.35;;;4.30;84.70;;;;;;5040640;28;20043;-55
2023/01/21 09:39:00;;;;;;;16.48;10.38;;;4.30;84.60;;;;;;5039910;28;20033;-52
2023/01/21 09:41:28;;;;;;;15.90;9.52;;;4.30;84.30;;;;;;5048277;28;20472;-53
2023/01/21 09:44:02;;;;;;;12.15;8.23;;;4.20;84.20;;;;;;5031756;28;20056;-51
2023/01/21 09:46:40;;;;;;;12.80;9.23;;;4.20;84.30;;;;;;5040154;28;20491;-61
2023/01/21 09:49:26;;;;;;;18.08;9.73;;;4.20;84.60;;;;;;5049388;28;20479;-63
2023/01/21 09:52:07;;;;;;;14.95;8.50;;;4.20;84.60;;;;;;5049739;28;20109;-61
2023/01/21 09:54:36;;;;;;;16.83;10.45;;;4.20;84.60;;;;;;5044059;28;20132;-61
2023/01/21 09:57:27;;;;;;;16.00;8.68;;;4.20;84.80;;;;;;5045580;28;20037;-59
2023/01/21 10:00:23;;;;;;;12.23;7.85;;;4.20;84.60;;;;;;5017107;28;20040;-58
2023/01/21 10:03:12;;;;;;;17.70;9.00;;;4.20;84.90;;;;;;5038629;28;20032;-60
2023/01/21 10:05:58;;;;;;;17.65;9.35;;;4.20;84.80;;;;;;5036554;28;20030;-60
2023/01/21 10:08:30;;;;;;;19.98;10.30;;;4.20;84.90;;;;;;5045989;28;20135;-60
2023/01/21 10:11:34;;;;;;;15.27;10.88;;;4.20;84.90;;;;;;5048643;28;20028;-59
2023/01/21 10:14:02;;;;;;;17.90;10.10;;;4.20;84.80;;;;;;5047975;28;20111;-60
2023/01/21 10:16:50;;;;;;;16.17;9.80;;;4.20;85.10;;;;;;5042965;28;20021;-59
2023/01/21 10:19:59;;;;;;;17.75;9.80;;;4.10;85.10;;;;;;5050892;28;20490;-59
2023/01/21 10:22:28;;;;;;;17.58;9.95;;;4.20;85.30;;;;;;5040494;28;20048;-60
2023/01/21 10:25:01;;;;;;;19.50;10.23;;;4.10;85.50;;;;;;5051232;28;20527;-59
2023/01/21 10:27:34;;;;;;;14.25;9.88;;;4.10;85.60;;;;;;5038895;28;20029;-59
2023/01/21 10:30:19;;;;;;;16.92;9.35;;;4.10;85.70;;;;;;5040815;28;20577;-59
2023/01/21 10:32:49;;;;;;;18.08;10.38;;;4.10;85.80;;;;;;5051117;28;20080;-61
2023/01/21 10:35:29;;;;;;;17.17;9.85;;;4.20;86.00;;;;;;5037356;28;20033;-60
2023/01/21 10:38:10;;;;;;;17.98;9.73;;;4.10;86.00;;;;;;5043917;28;20029;-59
2023/01/21 10:40:47;;;;;;;16.83;9.50;;;4.20;86.00;;;;;;5043950;28;20265;-59
2023/01/21 10:43:47;;;;;;;14.77;8.65;;;4.20;86.00;;;;;;5048494;28;20064;-59
2023/01/21 10:46:24;;;;;;;15.15;9.23;;;4.20;86.00;;;;;;4978243;28;21470;-60
2023/01/21 10:49:37;;;;;;;14.52;9.52;;;4.10;86.10;;;;;;5042789;28;20036;-59
2023/01/21 10:52:11;;;;;;;15.65;9.20;;;4.10;86.10;;;;;;4983157;28;20038;-60
2023/01/21 10:54:45;;;;;;;16.08;9.75;;;4.10;86.20;;;;;;4977451;28;20030;-59
2023/01/21 10:57:42;;;;;;;16.77;9.90;;;4.10;86.50;;;;;;5031320;28;20044;-60
2023/01/21 11:00:19;;;;;;;18.23;9.75;;;4.10;86.80;;;;;;5039499;28;20025;-60
2023/01/21 11:02:49;;;;;;;19.25;11.18;;;4.00;86.70;;;;;;5044364;28;20037;-59
2023/01/21 11:05:15;;;;;;;15.27;10.02;;;4.00;86.90;;;;;;5040645;28;20055;-59
2023/01/21 11:07:42;;;;;;;18.45;10.48;;;3.90;87.00;;;;;;5050524;28;20387;-59
2023/01/21 11:10:13;;;;;;;15.63;9.63;;;3.90;87.20;;;;;;5039347;28;20034;-59
2023/01/21 11:12:39;;;;;;;18.23;10.82;;;3.90;87.50;;;;;;5043438;28;20040;-59
2023/01/21 11:15:14;;;;;;;15.52;9.60;;;3.80;87.60;;;;;;5049147;28;20038;-59
2023/01/21 11:17:42;;;;;;;20.45;10.52;;;3.80;87.80;;;;;;5043496;28;20033;-60
2023/01/21 11:20:22;;;;;;;15.32;10.02;;;3.80;88.00;;;;;;5046335;28;20119;-59
2023/01/21 11:22:48;;;;;;;16.52;10.80;;;3.70;88.10;;;;;;5044771;28;20045;-60
2023/01/21 11:25:24;;;;;;;21.60;10.05;;;3.70;88.40;;;;;;5036848;28;20119;-59
2023/01/21 11:27:50;;;;;;;17.77;10.00;;;3.60;88.70;;;;;;5046675;28;20028;-59
2023/01/21 11:30:33;;;;;;;17.13;10.43;;;3.60;89.30;;;;;;5034958;28;20101;-59
2023/01/21 11:33:22;;;;;;;15.50;9.68;;;3.60;89.40;;;;;;5050240;28;20442;-59
2023/01/21 11:35:48;;;;;;;18.35;11.25;;;3.60;89.60;;;;;;5040402;28;20033;-59
2023/01/21 11:38:28;;;;;;;15.43;9.18;;;3.60;90.10;;;;;;5047620;28;20021;-59
2023/01/21 11:41:16;;;;;;;18.63;10.93;;;3.60;90.10;;;;;;5052965;28;20114;-61
2023/01/21 11:43:46;;;;;;;16.50;9.85;;;3.50;90.10;;;;;;5045400;28;20039;-61
2023/01/21 11:46:24;;;;;;;19.23;9.43;;;3.50;90.30;;;;;;5040998;28;20033;-55
2023/01/21 11:48:53;;;;;;;19.52;10.40;;;3.50;90.40;;;;;;5046500;28;20086;-53
2023/01/21 11:51:19;;;;;;;14.38;9.00;;;3.50;90.70;;;;;;5048106;28;20060;-59
2023/01/21 11:53:45;;;;;;;20.65;9.57;;;3.50;90.80;;;;;;5045766;28;20068;-59
2023/01/21 11:56:13;;;;;;;18.83;9.70;;;3.50;90.90;;;;;;5041721;28;20057;-53
2023/01/21 11:58:40;;;;;;;20.55;10.27;;;3.50;90.80;;;;;;5035187;28;20308;-53
2023/01/21 12:01:16;;;;;;;17.33;10.70;;;3.50;90.90;;;;;;5039021;28;20487;-48
2023/01/21 12:03:44;;;;;;;22.15;10.70;;;3.50;90.90;;;;;;5049134;28;20037;-51
2023/01/21 12:06:21;;;;;;;17.67;9.70;;;3.40;91.00;;;;;;5051144;28;20048;-60
2023/01/21 12:08:54;;;;;;;22.92;11.07;;;3.40;91.20;;;;;;5049044;28;20036;-57
2023/01/21 12:11:23;;;;;;;17.52;10.57;;;3.40;91.30;;;;;;5047469;28;20414;-61
2023/01/21 12:13:58;;;;;;;19.20;10.20;;;3.30;91.40;;;;;;5051044;28;20033;-59
2023/01/21 12:16:34;;;;;;;17.25;10.35;;;3.30;91.60;;;;;;5045877;28;20040;-60
2023/01/21 12:19:21;;;;;;;17.40;9.85;;;3.30;91.70;;;;;;5041178;28;20040;-60
2023/01/21 12:22:07;;;;;;;16.88;9.95;;;3.30;91.90;;;;;;5046605;28;20439;-60
2023/01/21 12:24:42;;;;;;;18.08;10.52;;;3.20;91.80;;;;;;5038610;28;20155;-59
2023/01/21 12:27:43;;;;;;;18.08;10.23;;;3.20;92.00;;;;;;5050897;28;20032;-58
2023/01/21 12:30:54;;;;;;;17.58;9.85;;;3.20;92.10;;;;;;5018675;28;20033;-58
2023/01/21 12:33:35;;;;;;;22.55;11.32;;;3.10;92.10;;;;;;5044568;28;20045;-59
2023/01/21 12:36:21;;;;;;;21.25;10.23;;;3.10;92.40;;;;;;5045072;28;20039;-59
2023/01/21 12:39:18;;;;;;;22.00;10.73;;;3.00;92.60;;;;;;5054119;28;20056;-59
2023/01/21 12:42:09;;;;;;;18.15;10.80;;;3.00;92.80;;;;;;5043532;28;20037;-59
2023/01/21 12:44:38;;;;;;;;;;;3.00;93.30;;;;;;5025961;28;20399;-60
2023/01/21 12:47:41;;;;;;;18.63;9.88;;;2.90;93.20;;;;;;5047655;28;19920;-59
2023/01/21 12:50:16;;;;;;;20.73;11.68;;;2.90;93.30;;;;;;5059468;28;20115;-59
2023/01/21 12:52:58;;;;;;;19.33;11.55;;;2.90;93.60;;;;;;5050679;28;20112;-60
2023/01/21 12:55:32;;;;;;;18.65;10.57;;;2.90;93.70;;;;;;5055630;28;20036;-59
2023/01/21 12:58:11;;;;;;;19.05;11.15;;;2.90;94.00;;;;;;5047038;28;20025;-60
2023/01/21 13:00:41;;;;;;;18.80;11.35;;;2.90;94.00;;;;;;5053098;28;20029;-61
2023/01/21 13:03:16;;;;;;;20.88;11.40;;;2.90;94.20;;;;;;5052596;28;20091;-60